This is the latest recevied weather packets stored in our database for station/object LRIA. If no packets are shown the sender has not sent any weather packets the latest 1 day(s).
| Time | Temp. | Humidity | Pressure | Rain* | Wind** | Luminosity | Snow |
|---|---|---|---|---|---|---|---|
| 1778090604 | 22.22° C | 36% | 1013 hPa | - | - | - | - |
| 1778080703 | 26.11° C | 30% | 1012 hPa | - | - | - | - |
| 1778078903 | 26.11° C | 28% | 1012 hPa | - | - | - | - |
| 1778078015 | 26.11° C | 28% | 1012 hPa | - | - | - | - |
| 1778076280 | 27.22° C | 30% | 1012 hPa | - | - | - | - |
| 1778072612 | 27.22° C | 26% | 1012 hPa | - | - | - | - |
| 1778071704 | 27.22° C | 26% | 1013 hPa | - | - | - | - |
| 1778060003 | 23.89° C | 29% | 1014 hPa | - | - | - | - |
| 1778059103 | 23.89° C | 34% | 1014 hPa | - | - | - | - |
| 1778056403 | 22.78° C | 36% | 1014 hPa | - | - | - | - |
| 1778055500 | 21.11° C | 40% | 1014 hPa | - | - | - | - |
| 1778053704 | 18.89° C | 46% | 1014 hPa | - | - | - | - |
| 1778051903 | 17.78° C | 49% | 1014 hPa | - | - | - | - |
| 1778051003 | 17.78° C | 49% | 1014 hPa | - | - | - | - |
| 1778049203 | 17.22° C | 45% | 1014 hPa | - | - | - | - |
| 1778047405 | 15° C | 51% | 1014 hPa | - | - | - | - |
| 1778046504 | 13.89° C | 55% | 1014 hPa | - | - | - | - |
| 1778043817 | 12.78° C | 55% | 1014 hPa | - | - | - | - |
| 1778042919 | 12.22° C | 58% | 1014 hPa | - | - | - | - |
| 1778042007 | 12.22° C | 58% | 1014 hPa | - | - | - | - |
| 1778041104 | 11.11° C | 62% | 1014 hPa | - | - | - | - |
| 1778040203 | 11.11° C | 62% | 1014 hPa | - | - | - | - |
| 1778039304 | 10° C | 62% | 1014 hPa | - | - | - | - |
| 1778037503 | 8.89° C | 66% | 1014 hPa | - | - | - | - |
| 1778036603 | 8.89° C | 66% | 1014 hPa | - | - | - | - |
* Rain since midnight (hover to see other rain measurements)
** Current wind speed in m/s (hover to see current wind gust speed)